createdAt,value
2019-02-21T00:00:28.685Z,3.44
2019-02-21T00:01:28.682Z,3.42
2019-02-21T00:02:28.668Z,3.45
2019-02-21T00:03:28.651Z,3.42
2019-02-21T00:04:28.735Z,3.47
2019-02-21T00:05:28.632Z,3.45
2019-02-21T00:06:28.617Z,3.50
2019-02-21T00:07:28.607Z,3.51
2019-02-21T00:08:28.687Z,3.51
2019-02-21T00:09:28.605Z,3.44
2019-02-21T00:10:28.582Z,3.45
2019-02-21T00:11:28.573Z,3.55
2019-02-21T00:12:28.558Z,3.55
2019-02-21T00:13:28.544Z,3.51
2019-02-21T00:14:28.535Z,3.56
2019-02-21T00:15:28.521Z,3.48
2019-02-21T00:16:28.507Z,3.53
2019-02-21T00:17:28.499Z,3.50
2019-02-21T00:18:28.493Z,3.51
2019-02-21T00:19:28.498Z,3.42
2019-02-21T00:20:28.480Z,3.42
2019-02-21T00:21:28.453Z,3.42
2019-02-21T00:22:28.447Z,3.45
2019-02-21T00:23:28.441Z,3.41
2019-02-21T00:24:28.442Z,3.37
2019-02-21T00:25:28.448Z,3.37
2019-02-21T00:26:28.491Z,3.50
2019-02-21T00:27:28.392Z,3.34
2019-02-21T00:28:28.394Z,3.28
2019-02-21T00:29:28.386Z,3.41
2019-02-21T00:30:35.280Z,3.32
2019-02-21T00:31:29.348Z,3.29
2019-02-21T00:32:28.333Z,3.29
2019-02-21T00:33:28.359Z,3.26
2019-02-21T00:34:28.327Z,3.29
2019-02-21T00:35:28.462Z,3.14
2019-02-21T00:36:28.293Z,3.16
2019-02-21T00:37:28.308Z,3.25
2019-02-21T00:38:28.268Z,3.23
2019-02-21T00:39:28.260Z,3.31
2019-02-21T00:40:28.268Z,3.19
2019-02-21T00:41:28.246Z,3.25
2019-02-21T00:42:28.229Z,3.14
2019-02-21T00:43:28.223Z,3.26
2019-02-21T00:44:28.207Z,3.26
2019-02-21T00:45:28.211Z,3.19
2019-02-21T00:46:28.200Z,3.19
2019-02-21T00:47:28.172Z,3.16
2019-02-21T00:48:28.161Z,3.01
2019-02-21T00:49:28.158Z,3.08
2019-02-21T00:50:28.146Z,3.10
2019-02-21T00:51:28.142Z,3.11
2019-02-21T00:52:28.116Z,3.04
2019-02-21T00:53:28.105Z,3.08
2019-02-21T00:54:28.121Z,3.05
2019-02-21T00:55:28.084Z,3.01
2019-02-21T00:56:28.078Z,3.00
2019-02-21T00:57:28.068Z,3.03
2019-02-21T00:58:28.057Z,3.01
2019-02-21T00:59:28.044Z,2.95
2019-02-21T01:00:28.049Z,2.89
2019-02-21T01:01:28.034Z,2.89
2019-02-21T01:02:28.024Z,2.86
2019-02-21T01:03:27.999Z,2.80
2019-02-21T01:04:27.991Z,2.77
2019-02-21T01:05:27.976Z,2.77
2019-02-21T01:06:27.980Z,2.79
2019-02-21T01:07:27.966Z,2.65
2019-02-21T01:08:27.952Z,2.62
2019-02-21T01:09:27.987Z,2.67
2019-02-21T01:10:27.922Z,2.67
2019-02-21T01:11:27.928Z,2.61
2019-02-21T01:12:27.907Z,2.51
2019-02-21T01:13:27.911Z,2.49
2019-02-21T01:14:27.882Z,2.47
2019-02-21T01:15:27.869Z,2.49
2019-02-21T01:16:28.009Z,2.39
2019-02-21T01:17:27.848Z,2.38
2019-02-21T01:18:27.860Z,2.38
2019-02-21T01:19:27.841Z,2.38
2019-02-21T01:20:27.837Z,2.28
2019-02-21T01:21:27.831Z,2.25
2019-02-21T01:22:27.798Z,2.24
2019-02-21T01:23:27.856Z,2.25
2019-02-21T01:24:27.812Z,2.28
2019-02-21T01:25:27.761Z,2.22
2019-02-21T01:26:27.768Z,2.18
2019-02-21T01:27:27.759Z,2.17
2019-02-21T01:28:27.748Z,2.13
2019-02-21T01:29:27.728Z,2.20
2019-02-21T01:30:27.704Z,2.15
2019-02-21T01:31:27.719Z,2.11
2019-02-21T01:32:27.683Z,2.08
2019-02-21T01:33:27.674Z,2.04
2019-02-21T01:34:27.667Z,2.06
2019-02-21T01:35:27.662Z,2.02
2019-02-21T01:36:27.663Z,1.94
2019-02-21T01:37:27.628Z,1.97
2019-02-21T01:38:27.632Z,1.94
2019-02-21T01:39:27.616Z,1.91
2019-02-21T01:40:27.599Z,1.88
2019-02-21T01:41:27.599Z,1.89
2019-02-21T01:42:27.582Z,1.87
2019-02-21T01:43:27.562Z,1.91
2019-02-21T01:44:27.557Z,1.84
2019-02-21T01:45:27.565Z,1.95
2019-02-21T01:46:27.575Z,1.78
2019-02-21T01:47:27.543Z,1.85
2019-02-21T01:48:29.562Z,1.81
2019-02-21T01:49:27.504Z,1.81
2019-02-21T01:50:27.494Z,1.87
2019-02-21T01:51:27.499Z,1.87
2019-02-21T01:52:27.516Z,1.80
2019-02-21T01:53:27.456Z,1.81
2019-02-21T01:54:27.478Z,1.85
2019-02-21T01:55:27.434Z,1.81
2019-02-21T01:56:27.425Z,1.81
2019-02-21T01:57:27.428Z,1.80
2019-02-21T01:58:27.413Z,1.78
2019-02-21T01:59:27.437Z,1.81
2019-02-21T02:00:27.416Z,1.84
2019-02-21T02:01:27.378Z,1.89
2019-02-21T02:02:27.372Z,1.95
2019-02-21T02:03:27.350Z,1.94
2019-02-21T02:04:27.340Z,1.99
2019-02-21T02:05:27.340Z,1.89
2019-02-21T02:06:27.365Z,1.91
2019-02-21T02:07:27.316Z,1.91
2019-02-21T02:08:27.302Z,1.89
2019-02-21T02:09:27.307Z,1.99
2019-02-21T02:10:27.290Z,1.94
2019-02-21T02:11:27.267Z,1.91
2019-02-21T02:12:27.327Z,1.88
2019-02-21T02:13:27.282Z,2.00
2019-02-21T02:14:27.240Z,1.95
2019-02-21T02:15:27.224Z,1.88
2019-02-21T02:16:27.212Z,1.88
2019-02-21T02:17:27.217Z,1.88
2019-02-21T02:18:27.488Z,1.84
2019-02-21T02:19:27.186Z,1.84
2019-02-21T02:20:27.174Z,1.95
2019-02-21T02:21:27.158Z,1.88
2019-02-21T02:22:27.151Z,1.94
2019-02-21T02:23:27.147Z,1.95
2019-02-21T02:24:27.124Z,1.88
2019-02-21T02:25:27.117Z,1.91
2019-02-21T02:26:27.099Z,1.92
2019-02-21T02:27:27.111Z,1.95
2019-02-21T02:28:27.076Z,1.89
2019-02-21T02:29:27.067Z,1.91
2019-02-21T02:30:27.096Z,1.89
2019-02-21T02:31:27.042Z,1.91
2019-02-21T02:32:27.124Z,1.89
2019-02-21T02:33:27.050Z,1.92
2019-02-21T02:34:27.116Z,1.92
2019-02-21T02:35:27.008Z,1.92
2019-02-21T02:36:26.989Z,1.95
2019-02-21T02:37:27.001Z,1.92
2019-02-21T02:38:26.966Z,1.91
2019-02-21T02:39:26.995Z,1.95
2019-02-21T02:40:26.969Z,1.92
2019-02-21T02:41:26.940Z,1.91
2019-02-21T02:42:26.961Z,1.91
2019-02-21T02:43:26.940Z,1.89
2019-02-21T02:44:26.903Z,1.91
2019-02-21T02:45:26.897Z,1.89
2019-02-21T02:46:26.886Z,1.88
2019-02-21T02:47:26.876Z,1.89
2019-02-21T02:48:26.864Z,1.88
2019-02-21T02:49:26.863Z,1.94
2019-02-21T02:50:26.857Z,1.95
2019-02-21T02:51:26.828Z,1.85
2019-02-21T02:52:26.828Z,1.94
2019-02-21T02:53:26.816Z,1.88
2019-02-21T02:54:26.800Z,1.92
2019-02-21T02:55:26.791Z,1.95
2019-02-21T02:56:26.786Z,1.84
2019-02-21T02:57:26.784Z,1.89
2019-02-21T02:58:26.762Z,1.88
2019-02-21T02:59:26.751Z,1.85
2019-02-21T03:00:26.745Z,1.73
2019-02-21T03:01:34.856Z,1.71
2019-02-21T03:02:27.744Z,1.74
2019-02-21T03:03:26.715Z,1.73
2019-02-21T03:04:26.748Z,1.80
2019-02-21T03:05:26.703Z,1.74
2019-02-21T03:06:26.670Z,1.78
2019-02-21T03:07:26.682Z,1.73
2019-02-21T03:08:26.654Z,1.77
2019-02-21T03:09:26.744Z,1.73
2019-02-21T03:10:26.626Z,1.70
2019-02-21T03:11:26.609Z,1.68
2019-02-21T03:12:26.639Z,1.63
2019-02-21T03:13:26.615Z,1.62
2019-02-21T03:14:26.592Z,1.53
2019-02-21T03:15:26.584Z,1.59
2019-02-21T03:16:26.602Z,1.55
2019-02-21T03:17:26.567Z,1.58
2019-02-21T03:18:26.821Z,1.50
2019-02-21T03:19:26.561Z,1.50
2019-02-21T03:20:26.538Z,1.53
2019-02-21T03:21:26.506Z,1.49
2019-02-21T03:22:26.510Z,1.45
2019-02-21T03:23:26.548Z,1.48
2019-02-21T03:24:26.481Z,1.38
2019-02-21T03:25:26.470Z,1.44
2019-02-21T03:26:26.446Z,1.37
2019-02-21T03:27:26.447Z,1.40
2019-02-21T03:28:26.445Z,1.38
2019-02-21T03:29:26.418Z,1.41
2019-02-21T03:30:26.426Z,1.35
2019-02-21T03:31:26.411Z,1.38
2019-02-21T03:32:26.385Z,1.40
2019-02-21T03:33:26.404Z,1.34
2019-02-21T03:34:26.385Z,1.35
2019-02-21T03:35:26.390Z,1.24
2019-02-21T03:36:26.387Z,1.34
2019-02-21T03:37:26.363Z,1.31
2019-02-21T03:38:26.357Z,1.35
2019-02-21T03:39:26.314Z,1.32
2019-02-21T03:40:26.311Z,1.31
2019-02-21T03:41:26.308Z,1.22
2019-02-21T03:42:26.310Z,1.28
2019-02-21T03:43:26.306Z,1.32
2019-02-21T03:44:26.303Z,1.28
2019-02-21T03:45:26.244Z,1.24
2019-02-21T03:46:26.240Z,1.26
2019-02-21T03:47:26.270Z,1.24
2019-02-21T03:48:26.244Z,1.24
2019-02-21T03:49:26.200Z,1.20
2019-02-21T03:50:26.216Z,1.16
2019-02-21T03:51:26.279Z,1.16
2019-02-21T03:52:26.173Z,1.23
2019-02-21T03:53:26.182Z,1.13
2019-02-21T03:54:26.188Z,1.16
2019-02-21T03:55:26.137Z,1.10
2019-02-21T03:56:26.148Z,1.05
2019-02-21T03:57:26.113Z,1.13
2019-02-21T03:58:26.221Z,1.08
2019-02-21T03:59:26.091Z,1.08
2019-02-21T04:00:26.082Z,1.04
2019-02-21T04:01:26.086Z,0.96
2019-02-21T04:02:26.060Z,0.98
2019-02-21T04:03:26.060Z,1.06
2019-02-21T04:04:26.040Z,0.95
2019-02-21T04:05:26.249Z,0.96
2019-02-21T04:06:26.054Z,0.99
2019-02-21T04:07:26.014Z,1.01
2019-02-21T04:08:26.022Z,0.99
2019-02-21T04:09:26.012Z,0.86
2019-02-21T04:10:25.969Z,0.84
2019-02-21T04:11:25.996Z,0.78
2019-02-21T04:12:26.034Z,0.80
2019-02-21T04:13:25.936Z,0.77
2019-02-21T04:14:25.939Z,0.84
2019-02-21T04:15:25.923Z,0.80
2019-02-21T04:16:25.928Z,0.76
2019-02-21T04:17:25.907Z,0.78
2019-02-21T04:18:25.912Z,0.76
2019-02-21T04:19:25.904Z,0.84
2019-02-21T04:20:25.870Z,0.77
2019-02-21T04:21:25.855Z,0.77
2019-02-21T04:22:25.875Z,0.76
2019-02-21T04:23:25.856Z,0.69
2019-02-21T04:24:25.829Z,0.69
2019-02-21T04:25:25.820Z,0.70
2019-02-21T04:26:25.827Z,0.73
2019-02-21T04:27:25.794Z,0.68
2019-02-21T04:28:25.782Z,0.74
2019-02-21T04:29:25.781Z,0.66
2019-02-21T04:30:25.790Z,0.65
2019-02-21T04:31:25.752Z,0.59
2019-02-21T04:32:25.746Z,0.59
2019-02-21T04:33:25.850Z,0.60
2019-02-21T04:34:25.724Z,0.60
2019-02-21T04:35:25.701Z,0.52
2019-02-21T04:36:25.714Z,0.50
2019-02-21T04:37:25.679Z,0.50
2019-02-21T04:38:25.693Z,0.49
2019-02-21T04:39:25.662Z,0.55
2019-02-21T04:40:25.724Z,0.44
2019-02-21T04:41:25.646Z,0.47
2019-02-21T04:42:25.629Z,0.39
2019-02-21T04:43:25.627Z,0.52
2019-02-21T04:44:25.633Z,0.39
2019-02-21T04:45:25.587Z,0.41
2019-02-21T04:46:25.623Z,0.36
2019-02-21T04:47:25.590Z,0.41
2019-02-21T04:48:25.604Z,0.46
2019-02-21T04:49:25.548Z,0.46
2019-02-21T04:50:25.564Z,0.50
2019-02-21T04:51:25.538Z,0.40
2019-02-21T04:52:25.565Z,0.40
2019-02-21T04:53:25.507Z,0.50
2019-02-21T04:54:25.501Z,0.46
2019-02-21T04:55:25.494Z,0.41
2019-02-21T04:56:25.474Z,0.50
2019-02-21T04:57:25.478Z,0.39
2019-02-21T04:58:25.477Z,0.44
2019-02-21T04:59:25.430Z,0.39
2019-02-21T05:00:25.459Z,0.44
2019-02-21T05:01:25.426Z,0.40
2019-02-21T05:02:28.900Z,0.34
2019-02-21T05:03:25.466Z,0.29
2019-02-21T05:04:25.390Z,0.37
2019-02-21T05:05:25.406Z,0.40
2019-02-21T05:06:25.371Z,0.37
2019-02-21T05:07:25.378Z,0.32
2019-02-21T05:08:25.333Z,0.43
2019-02-21T05:09:27.279Z,0.26
2019-02-21T05:10:25.321Z,0.36
2019-02-21T05:11:25.345Z,0.31
2019-02-21T05:12:25.294Z,0.29
2019-02-21T05:13:25.311Z,0.31
2019-02-21T05:14:25.287Z,0.32
2019-02-21T05:15:25.321Z,0.28
2019-02-21T05:16:25.286Z,0.31
2019-02-21T05:17:25.241Z,0.25
2019-02-21T05:18:25.245Z,0.25
2019-02-21T05:19:25.233Z,0.23
2019-02-21T05:20:25.223Z,0.31
2019-02-21T05:21:25.216Z,0.31
2019-02-21T05:22:25.203Z,0.28
2019-02-21T05:23:25.176Z,0.22
2019-02-21T05:24:25.195Z,0.25
2019-02-21T05:25:25.159Z,0.32
2019-02-21T05:26:25.137Z,0.29
2019-02-21T05:27:25.130Z,0.28
2019-02-21T05:28:25.119Z,0.26
2019-02-21T05:29:25.191Z,0.18
2019-02-21T05:30:25.133Z,0.19
2019-02-21T05:31:25.098Z,0.19
2019-02-21T05:32:25.094Z,0.23
2019-02-21T05:33:25.063Z,0.25
2019-02-21T05:34:25.060Z,0.22
2019-02-21T05:35:25.050Z,0.28
2019-02-21T05:36:25.034Z,0.29
2019-02-21T05:37:25.030Z,0.25
2019-02-21T05:38:25.014Z,0.28
2019-02-21T05:39:25.016Z,0.22
2019-02-21T05:40:25.007Z,0.26
2019-02-21T05:41:24.996Z,0.32
2019-02-21T05:42:24.980Z,0.31
2019-02-21T05:43:24.972Z,0.32
2019-02-21T05:44:25.041Z,0.34
2019-02-21T05:45:24.931Z,0.34
2019-02-21T05:46:24.938Z,0.49
2019-02-21T05:47:25.016Z,0.44
2019-02-21T05:48:24.918Z,0.39
2019-02-21T05:49:24.887Z,0.36
2019-02-21T05:50:24.875Z,0.37
2019-02-21T05:51:24.868Z,0.41
2019-02-21T05:52:24.871Z,0.37
2019-02-21T05:53:24.857Z,0.40
2019-02-21T05:54:24.855Z,0.46
2019-02-21T05:55:24.849Z,0.44
2019-02-21T05:56:24.903Z,0.41
2019-02-21T05:57:25.024Z,0.34
2019-02-21T05:58:24.788Z,0.39
2019-02-21T05:59:24.843Z,0.41
2019-02-21T06:00:24.843Z,0.41
2019-02-21T06:01:24.773Z,0.49
2019-02-21T06:02:24.767Z,0.46
2019-02-21T06:03:24.744Z,0.47
2019-02-21T06:04:24.747Z,0.44
2019-02-21T06:05:24.719Z,0.37
2019-02-21T06:06:24.719Z,0.49
2019-02-21T06:07:24.695Z,0.43
2019-02-21T06:08:24.681Z,0.43
2019-02-21T06:09:24.669Z,0.49
2019-02-21T06:10:24.662Z,0.50
2019-02-21T06:11:24.654Z,0.44
2019-02-21T06:12:33.194Z,0.44
2019-02-21T06:13:25.704Z,0.43
2019-02-21T06:14:24.637Z,0.43
2019-02-21T06:15:24.622Z,0.41
2019-02-21T06:16:24.592Z,0.50
2019-02-21T06:17:24.593Z,0.52
2019-02-21T06:18:24.573Z,0.47
2019-02-21T06:19:24.565Z,0.50
2019-02-21T06:20:24.583Z,0.52
2019-02-21T06:21:24.537Z,0.46
2019-02-21T06:22:24.533Z,0.47
2019-02-21T06:23:25.107Z,0.47
2019-02-21T06:24:24.519Z,0.44
2019-02-21T06:25:24.514Z,0.46
2019-02-21T06:26:24.620Z,0.43
2019-02-21T06:27:24.480Z,0.52
2019-02-21T06:28:24.554Z,0.43
2019-02-21T06:29:24.697Z,0.47
2019-02-21T06:30:24.556Z,0.49
2019-02-21T06:31:24.455Z,0.44
2019-02-21T06:32:24.445Z,0.44
2019-02-21T06:33:24.422Z,0.47
2019-02-21T06:34:24.520Z,0.49
2019-02-21T06:35:24.462Z,0.44
2019-02-21T06:36:26.163Z,0.49
2019-02-21T06:37:24.377Z,0.47
2019-02-21T06:38:24.351Z,0.44
2019-02-21T06:39:25.233Z,0.47
2019-02-21T06:40:24.393Z,0.47
2019-02-21T06:41:24.328Z,0.52
2019-02-21T06:42:24.310Z,0.55
2019-02-21T06:43:24.295Z,0.49
2019-02-21T06:44:24.293Z,0.50
2019-02-21T06:45:24.290Z,0.49
2019-02-21T06:46:24.273Z,0.52
2019-02-21T06:47:24.365Z,0.56
2019-02-21T06:48:24.255Z,0.60
2019-02-21T06:49:32.149Z,0.55
2019-02-21T06:50:27.067Z,0.66
2019-02-21T06:51:24.250Z,0.65
2019-02-21T06:52:24.193Z,0.69
2019-02-21T06:53:24.194Z,0.69
2019-02-21T06:54:24.195Z,0.74
2019-02-21T06:55:24.170Z,0.78
2019-02-21T06:56:24.185Z,0.77
2019-02-21T06:57:24.139Z,0.78
2019-02-21T06:58:24.134Z,0.77
2019-02-21T06:59:24.125Z,0.80
2019-02-21T07:00:24.114Z,0.77
2019-02-21T07:01:29.058Z,0.83
2019-02-21T07:02:25.085Z,0.77
2019-02-21T07:03:24.085Z,0.78
2019-02-21T07:04:24.064Z,0.83
2019-02-21T07:05:24.066Z,0.87
2019-02-21T07:06:31.429Z,0.92
2019-02-21T07:07:25.033Z,1.01
2019-02-21T07:08:25.209Z,1.05
2019-02-21T07:09:24.012Z,1.12
2019-02-21T07:10:24.009Z,1.20
2019-02-21T07:11:25.392Z,1.20
2019-02-21T07:12:23.990Z,1.19
2019-02-21T07:13:26.918Z,1.30
2019-02-21T07:14:24.032Z,1.30
2019-02-21T07:15:23.954Z,1.32
2019-02-21T07:16:23.945Z,1.30
2019-02-21T07:17:23.927Z,1.40
2019-02-21T07:18:23.912Z,1.38
2019-02-21T07:19:23.932Z,1.52
2019-02-21T07:20:23.895Z,1.44
2019-02-21T07:21:23.889Z,1.53
2019-02-21T07:22:23.890Z,1.52
2019-02-21T07:23:23.872Z,1.53
2019-02-21T07:24:23.851Z,1.50
2019-02-21T07:25:23.859Z,1.66
2019-02-21T07:26:23.838Z,1.60
2019-02-21T07:27:23.885Z,1.74
2019-02-21T07:28:23.812Z,1.70
2019-02-21T07:29:23.834Z,1.71
2019-02-21T07:30:23.798Z,1.71
2019-02-21T07:31:28.778Z,1.74
2019-02-21T07:32:24.827Z,1.84
2019-02-21T07:33:28.315Z,1.85
2019-02-21T07:34:24.752Z,1.87
2019-02-21T07:35:23.791Z,1.91
2019-02-21T07:36:23.725Z,1.95
2019-02-21T07:37:23.746Z,1.92
2019-02-21T07:38:23.725Z,2.04
2019-02-21T07:39:23.748Z,2.06
2019-02-21T07:40:23.675Z,1.97
2019-02-21T07:41:23.679Z,2.06
2019-02-21T07:42:23.680Z,2.14
2019-02-21T07:43:24.909Z,2.15
2019-02-21T07:44:23.644Z,2.18
2019-02-21T07:45:23.641Z,2.25
2019-02-21T07:46:23.663Z,2.25
2019-02-21T07:47:23.603Z,2.18
2019-02-21T07:48:23.597Z,2.33
2019-02-21T07:49:25.675Z,2.36
2019-02-21T07:50:23.594Z,2.38
2019-02-21T07:51:23.601Z,2.39
2019-02-21T07:52:26.034Z,2.44
2019-02-21T07:53:23.550Z,2.36
2019-02-21T07:54:23.528Z,2.35
2019-02-21T07:55:23.543Z,2.42
2019-02-21T07:56:23.524Z,2.43
2019-02-21T07:57:23.515Z,2.42
2019-02-21T07:58:23.655Z,2.51
2019-02-21T07:59:23.475Z,2.50
2019-02-21T08:00:23.479Z,2.57
2019-02-21T08:01:23.499Z,2.67
2019-02-21T08:02:23.450Z,2.68
2019-02-21T08:03:31.912Z,2.67
2019-02-21T08:04:24.482Z,2.77
2019-02-21T08:05:23.776Z,2.82
2019-02-21T08:06:23.400Z,2.95
2019-02-21T08:07:26.259Z,3.04
2019-02-21T08:08:23.372Z,3.10
2019-02-21T08:09:23.364Z,3.07
2019-02-21T08:10:33.031Z,3.19
2019-02-21T08:11:24.354Z,3.28
2019-02-21T08:12:23.460Z,3.34
2019-02-21T08:13:23.347Z,3.37
2019-02-21T08:14:23.313Z,3.36
2019-02-21T08:15:23.392Z,3.44
2019-02-21T08:16:23.299Z,3.51
2019-02-21T08:17:23.336Z,3.66
2019-02-21T08:18:23.273Z,3.68
2019-02-21T08:19:23.324Z,3.66
2019-02-21T08:20:33.476Z,3.69
2019-02-21T08:21:24.342Z,3.77
2019-02-21T08:22:23.231Z,3.84
2019-02-21T08:23:23.215Z,3.87
2019-02-21T08:24:23.245Z,3.98
2019-02-21T08:25:23.246Z,4.04
2019-02-21T08:26:23.188Z,4.08
2019-02-21T08:27:23.225Z,4.06
2019-02-21T08:28:23.262Z,4.12
2019-02-21T08:29:23.216Z,4.24
2019-02-21T08:30:23.165Z,4.30
2019-02-21T08:31:23.224Z,4.23
2019-02-21T08:32:23.115Z,4.35
2019-02-21T08:33:23.111Z,4.41
2019-02-21T08:34:23.093Z,4.48
2019-02-21T08:35:23.092Z,4.60
2019-02-21T08:36:23.089Z,4.59
2019-02-21T08:37:23.067Z,4.70
2019-02-21T08:38:23.065Z,4.77
2019-02-21T08:39:23.055Z,4.89
2019-02-21T08:40:25.007Z,5.12
2019-02-21T08:41:25.668Z,5.21
2019-02-21T08:42:23.018Z,5.32
2019-02-21T08:43:23.014Z,5.43
2019-02-21T08:44:22.988Z,5.59
2019-02-21T08:45:23.006Z,5.80
2019-02-21T08:46:22.971Z,5.98
2019-02-21T08:47:22.979Z,6.11
2019-02-21T08:48:23.125Z,6.24
2019-02-21T08:49:22.948Z,6.41
2019-02-21T08:50:22.923Z,6.49
2019-02-21T08:51:22.916Z,6.66
2019-02-21T08:52:22.915Z,6.77
2019-02-21T08:53:22.911Z,6.88
2019-02-21T08:54:22.936Z,6.96
2019-02-21T08:55:22.874Z,7.23
2019-02-21T08:56:22.860Z,7.31
2019-02-21T08:57:22.852Z,7.35
2019-02-21T08:58:22.915Z,7.45
2019-02-21T08:59:22.845Z,7.40
2019-02-21T09:00:22.841Z,7.38
2019-02-21T09:01:22.819Z,7.38
2019-02-21T09:02:22.826Z,7.36
2019-02-21T09:03:22.817Z,7.36
2019-02-21T09:04:27.258Z,7.33
2019-02-21T09:05:23.768Z,7.50
2019-02-21T09:06:24.680Z,7.51
2019-02-21T09:07:22.738Z,7.48
2019-02-21T09:08:32.974Z,7.60
2019-02-21T09:09:23.737Z,7.58
2019-02-21T09:10:22.723Z,7.72
2019-02-21T09:11:22.718Z,7.83
2019-02-21T09:12:22.688Z,7.93
2019-02-21T09:13:23.890Z,8.44
2019-02-21T09:14:22.692Z,8.55
2019-02-21T09:15:22.652Z,8.88
2019-02-21T09:16:22.650Z,8.87
2019-02-21T09:17:22.674Z,8.85
2019-02-21T09:18:22.619Z,8.87
2019-02-21T09:19:22.611Z,9.08
2019-02-21T09:20:22.610Z,9.13
2019-02-21T09:21:22.615Z,9.19
2019-02-21T09:22:22.607Z,9.08
2019-02-21T09:23:22.580Z,9.02
2019-02-21T09:24:37.756Z,9.00
2019-02-21T09:25:23.547Z,8.94
2019-02-21T09:26:22.531Z,8.89
2019-02-21T09:27:22.567Z,8.78
2019-02-21T09:28:22.637Z,8.78
2019-02-21T09:29:22.536Z,8.63
2019-02-21T09:30:22.489Z,8.64
2019-02-21T09:31:22.544Z,8.66
2019-02-21T09:32:22.465Z,8.67
2019-02-21T09:33:22.451Z,8.61
2019-02-21T09:34:22.480Z,8.63
2019-02-21T09:35:22.445Z,8.55
2019-02-21T09:36:22.418Z,8.45
2019-02-21T09:37:22.474Z,8.46
2019-02-21T09:38:22.403Z,8.52
2019-02-21T09:39:22.420Z,8.66
2019-02-21T09:40:22.391Z,8.71
2019-02-21T09:41:22.385Z,8.76
2019-02-21T09:42:22.367Z,8.88
2019-02-21T09:43:22.367Z,8.89
2019-02-21T09:44:22.347Z,8.95
2019-02-21T09:45:22.348Z,9.11
2019-02-21T09:46:22.318Z,9.26
2019-02-21T09:47:22.326Z,9.29
2019-02-21T09:48:22.295Z,9.29
2019-02-21T09:49:22.283Z,9.26
2019-02-21T09:50:22.293Z,9.16
2019-02-21T09:51:22.265Z,9.21
2019-02-21T09:52:22.261Z,9.21
2019-02-21T09:53:22.240Z,9.28
2019-02-21T09:54:22.229Z,9.34
2019-02-21T09:55:22.231Z,9.37
2019-02-21T09:56:30.031Z,9.36
2019-02-21T09:57:23.191Z,9.31
2019-02-21T09:58:22.183Z,9.32
2019-02-21T09:59:22.171Z,9.23
2019-02-21T10:00:22.444Z,9.19
2019-02-21T10:01:22.157Z,9.11
2019-02-21T10:02:23.147Z,9.00
2019-02-21T10:03:22.122Z,8.95
2019-02-21T10:04:31.856Z,8.82
2019-02-21T10:05:23.117Z,8.76
2019-02-21T10:06:22.095Z,8.71
2019-02-21T10:07:22.134Z,8.69
2019-02-21T10:08:22.153Z,8.67
2019-02-21T10:09:22.062Z,8.64
2019-02-21T10:10:22.083Z,8.55
2019-02-21T10:11:22.035Z,8.58
2019-02-21T10:12:22.033Z,8.66
2019-02-21T10:13:22.018Z,8.71
2019-02-21T10:14:22.009Z,8.73
2019-02-21T10:15:22.008Z,8.82
2019-02-21T10:16:22.027Z,8.82
2019-02-21T10:17:21.994Z,9.04
2019-02-21T10:18:22.003Z,9.06
2019-02-21T10:19:21.948Z,9.11
2019-02-21T10:20:21.950Z,9.13
2019-02-21T10:21:21.934Z,9.22
2019-02-21T10:22:21.926Z,9.28
2019-02-21T10:23:24.239Z,9.32
2019-02-21T10:24:21.897Z,9.18
2019-02-21T10:25:23.122Z,9.32
2019-02-21T10:26:21.877Z,9.46
2019-02-21T10:27:21.878Z,9.44
2019-02-21T10:28:21.856Z,9.68
2019-02-21T10:29:21.871Z,9.84
2019-02-21T10:30:21.833Z,9.95
2019-02-21T10:31:21.823Z,9.91
2019-02-21T10:32:21.811Z,9.98
2019-02-21T10:33:21.819Z,9.86
2019-02-21T10:34:22.025Z,9.82
2019-02-21T10:35:21.788Z,9.91
2019-02-21T10:36:21.761Z,9.82
2019-02-21T10:37:21.759Z,9.92
2019-02-21T10:38:21.740Z,9.92
2019-02-21T10:39:21.730Z,9.99
2019-02-21T10:40:21.755Z,9.95
2019-02-21T10:41:21.716Z,10.10
2019-02-21T10:42:21.695Z,10.31
2019-02-21T10:43:21.688Z,10.69
2019-02-21T10:44:21.680Z,10.86
2019-02-21T10:45:21.702Z,10.99
2019-02-21T10:46:21.665Z,11.18
2019-02-21T10:47:21.642Z,11.19
2019-02-21T10:48:21.641Z,11.22
2019-02-21T10:49:21.645Z,11.33
2019-02-21T10:50:21.709Z,11.33
2019-02-21T10:51:21.606Z,11.41
2019-02-21T10:52:21.600Z,11.55
2019-02-21T10:53:21.586Z,11.62
2019-02-21T10:54:21.568Z,11.63
2019-02-21T10:55:21.571Z,11.51
2019-02-21T10:56:21.559Z,11.51
2019-02-21T10:57:21.610Z,11.54
2019-02-21T10:58:21.530Z,11.41
2019-02-21T10:59:21.537Z,11.36
2019-02-21T11:00:21.519Z,11.30
2019-02-21T11:01:21.503Z,11.43
2019-02-21T11:02:21.498Z,11.32
2019-02-21T11:03:21.479Z,11.29
2019-02-21T11:04:21.464Z,11.30
2019-02-21T11:05:21.461Z,11.37
2019-02-21T11:06:21.448Z,11.33
2019-02-21T11:07:21.430Z,11.40
2019-02-21T11:08:21.473Z,11.36
2019-02-21T11:09:21.415Z,11.35
2019-02-21T11:10:21.439Z,11.57
2019-02-21T11:11:21.389Z,11.90
2019-02-21T11:12:21.388Z,12.35
2019-02-21T11:13:21.384Z,12.75
2019-02-21T11:14:21.386Z,13.09
2019-02-21T11:15:21.343Z,13.70
2019-02-21T11:16:21.352Z,13.99
2019-02-21T11:17:21.320Z,14.18
2019-02-21T11:18:21.341Z,14.17
2019-02-21T11:19:21.308Z,14.35
2019-02-21T11:20:21.326Z,14.43
2019-02-21T11:21:21.285Z,14.41
2019-02-21T11:22:21.263Z,14.35
2019-02-21T11:23:21.254Z,14.28
2019-02-21T11:24:21.258Z,14.25
2019-02-21T11:25:21.248Z,14.36
2019-02-21T11:26:21.247Z,14.36
2019-02-21T11:27:21.235Z,14.22
2019-02-21T11:28:21.204Z,14.20
2019-02-21T11:29:21.191Z,14.00
2019-02-21T11:30:21.183Z,13.95
2019-02-21T11:31:21.188Z,13.81
2019-02-21T11:32:21.206Z,13.96
2019-02-21T11:33:21.243Z,14.03
2019-02-21T11:34:21.139Z,14.26
2019-02-21T11:35:21.128Z,14.43
2019-02-21T11:36:21.130Z,14.55
2019-02-21T11:37:21.136Z,14.88
2019-02-21T11:38:21.095Z,14.94
2019-02-21T11:39:21.085Z,14.96
2019-02-21T11:40:21.090Z,15.11
2019-02-21T11:41:21.076Z,15.39
2019-02-21T11:42:21.053Z,15.64
2019-02-21T11:43:21.044Z,15.83
2019-02-21T11:44:21.027Z,16.21
2019-02-21T11:45:21.026Z,16.43
2019-02-21T11:46:21.009Z,16.75
2019-02-21T11:47:21.002Z,17.12
2019-02-21T11:48:20.996Z,17.31
2019-02-21T11:49:20.987Z,17.46
2019-02-21T11:50:21.040Z,17.30
2019-02-21T11:51:20.961Z,17.29
2019-02-21T11:52:20.946Z,17.33
2019-02-21T11:53:21.083Z,17.59
2019-02-21T11:54:26.976Z,17.74
2019-02-21T11:55:21.918Z,17.34
2019-02-21T11:56:20.972Z,17.24
2019-02-21T11:57:20.896Z,17.14
2019-02-21T11:58:20.881Z,16.96
2019-02-21T11:59:20.880Z,17.04
2019-02-21T12:00:20.884Z,16.84
2019-02-21T12:01:20.988Z,16.66
2019-02-21T12:02:20.883Z,16.33
2019-02-21T12:03:21.399Z,15.72
2019-02-21T12:04:20.827Z,15.51
2019-02-21T12:05:30.458Z,15.31
2019-02-21T12:06:21.832Z,15.07
2019-02-21T12:07:20.793Z,14.85
2019-02-21T12:08:20.796Z,14.63
2019-02-21T12:09:20.832Z,14.53
2019-02-21T12:10:20.759Z,14.26
2019-02-21T12:11:20.765Z,14.15
2019-02-21T12:12:20.738Z,14.03
2019-02-21T12:13:20.732Z,13.93
2019-02-21T12:14:20.724Z,13.79
2019-02-21T12:15:20.766Z,13.74
2019-02-21T12:16:20.753Z,13.79
2019-02-21T12:17:21.006Z,13.67
2019-02-21T12:18:20.690Z,13.62
2019-02-21T12:19:20.698Z,13.74
2019-02-21T12:20:20.664Z,13.75
2019-02-21T12:21:20.704Z,13.74
2019-02-21T12:22:20.677Z,13.86
2019-02-21T12:23:20.685Z,13.89
2019-02-21T12:24:20.629Z,13.96
2019-02-21T12:25:20.669Z,14.04
2019-02-21T12:26:20.630Z,14.10
2019-02-21T12:27:20.644Z,14.17
2019-02-21T12:28:20.643Z,14.11
2019-02-21T12:29:20.550Z,14.07
2019-02-21T12:30:20.709Z,13.97
2019-02-21T12:31:20.537Z,13.99
2019-02-21T12:32:20.543Z,14.03
2019-02-21T12:33:20.513Z,13.77
2019-02-21T12:34:20.538Z,13.67
2019-02-21T12:35:29.141Z,13.74
2019-02-21T12:36:21.536Z,13.54
2019-02-21T12:37:20.481Z,13.41
2019-02-21T12:38:20.452Z,13.39
2019-02-21T12:39:20.473Z,13.38
2019-02-21T12:40:20.470Z,13.35
2019-02-21T12:41:20.421Z,13.39
2019-02-21T12:42:20.471Z,13.31
2019-02-21T12:43:20.398Z,13.30
2019-02-21T12:44:20.398Z,13.22
2019-02-21T12:45:20.405Z,13.11
2019-02-21T12:46:20.411Z,12.91
2019-02-21T12:47:20.670Z,12.73
2019-02-21T12:48:20.393Z,12.75
2019-02-21T12:49:20.404Z,12.75
2019-02-21T12:50:20.370Z,12.75
2019-02-21T12:51:20.471Z,12.68
2019-02-21T12:52:20.447Z,12.67
2019-02-21T12:53:20.359Z,12.73
2019-02-21T12:54:20.338Z,12.70
2019-02-21T12:55:27.938Z,12.78
2019-02-21T12:56:21.275Z,12.78
2019-02-21T12:57:20.281Z,12.90
2019-02-21T12:58:20.292Z,12.90
2019-02-21T12:59:20.253Z,12.95
2019-02-21T13:00:20.259Z,13.01
2019-02-21T13:01:20.220Z,13.04
2019-02-21T13:02:20.216Z,13.04
2019-02-21T13:03:20.219Z,13.12
2019-02-21T13:04:20.347Z,13.19
2019-02-21T13:05:20.179Z,13.28
2019-02-21T13:06:20.163Z,13.31
2019-02-21T13:07:20.237Z,13.30
2019-02-21T13:08:20.183Z,13.37
2019-02-21T13:09:20.157Z,13.37
2019-02-21T13:10:20.115Z,13.28
2019-02-21T13:11:20.204Z,13.33
2019-02-21T13:12:20.115Z,13.30
2019-02-21T13:13:20.134Z,13.09